sensor_id;sensor_type;location;lat;lon;timestamp;temperature;humidity
47336;DHT22;33068;51.990;5.926;2022-11-15T00:01:22;7.30;99.90
47336;DHT22;33068;51.990;5.926;2022-11-15T00:04:09;7.20;99.90
47336;DHT22;33068;51.990;5.926;2022-11-15T00:06:55;7.20;99.90
47336;DHT22;33068;51.990;5.926;2022-11-15T00:09:40;7.30;99.90
47336;DHT22;33068;51.990;5.926;2022-11-15T00:12:27;7.40;99.90
47336;DHT22;33068;51.990;5.926;2022-11-15T00:15:13;7.40;99.90
47336;DHT22;33068;51.990;5.926;2022-11-15T00:17:58;7.40;99.90
47336;DHT22;33068;51.990;5.926;2022-11-15T00:20:45;7.50;99.90
47336;DHT22;33068;51.990;5.926;2022-11-15T00:23:31;7.50;99.90
47336;DHT22;33068;51.990;5.926;2022-11-15T00:26:16;7.50;99.90
47336;DHT22;33068;51.990;5.926;2022-11-15T00:29:02;7.50;99.90
47336;DHT22;33068;51.990;5.926;2022-11-15T00:31:48;7.70;99.90
47336;DHT22;33068;51.990;5.926;2022-11-15T00:34:33;7.50;99.90
47336;DHT22;33068;51.990;5.926;2022-11-15T00:37:21;7.80;99.90
47336;DHT22;33068;51.990;5.926;2022-11-15T00:40:08;7.50;99.90
47336;DHT22;33068;51.990;5.926;2022-11-15T00:42:54;7.50;99.90
47336;DHT22;33068;51.990;5.926;2022-11-15T00:45:39;7.70;99.90
47336;DHT22;33068;51.990;5.926;2022-11-15T00:48:25;7.50;99.90
47336;DHT22;33068;51.990;5.926;2022-11-15T00:51:11;7.60;99.90
47336;DHT22;33068;51.990;5.926;2022-11-15T00:53:58;7.50;99.90
47336;DHT22;33068;51.990;5.926;2022-11-15T00:56:43;7.50;99.90
47336;DHT22;33068;51.990;5.926;2022-11-15T00:59:29;7.70;99.90
47336;DHT22;33068;51.990;5.926;2022-11-15T01:02:14;7.60;99.90
47336;DHT22;33068;51.990;5.926;2022-11-15T01:05:00;7.70;99.90
47336;DHT22;33068;51.990;5.926;2022-11-15T01:07:46;7.70;99.90
47336;DHT22;33068;51.990;5.926;2022-11-15T01:10:33;7.70;99.90
47336;DHT22;33068;51.990;5.926;2022-11-15T01:13:18;7.70;99.90
47336;DHT22;33068;51.990;5.926;2022-11-15T01:16:09;7.80;99.90
47336;DHT22;33068;51.990;5.926;2022-11-15T01:18:55;7.80;99.90
47336;DHT22;33068;51.990;5.926;2022-11-15T01:21:40;7.80;99.90
47336;DHT22;33068;51.990;5.926;2022-11-15T01:24:26;7.70;99.90
47336;DHT22;33068;51.990;5.926;2022-11-15T01:27:14;7.90;99.90
47336;DHT22;33068;51.990;5.926;2022-11-15T01:29:59;7.90;99.90
47336;DHT22;33068;51.990;5.926;2022-11-15T01:32:45;7.90;99.90
47336;DHT22;33068;51.990;5.926;2022-11-15T01:35:30;7.90;99.90
47336;DHT22;33068;51.990;5.926;2022-11-15T01:38:16;8.00;99.90
47336;DHT22;33068;51.990;5.926;2022-11-15T01:41:02;8.20;99.90
47336;DHT22;33068;51.990;5.926;2022-11-15T01:43:53;8.00;99.90
47336;DHT22;33068;51.990;5.926;2022-11-15T01:46:39;8.00;99.90
47336;DHT22;33068;51.990;5.926;2022-11-15T01:49:25;8.00;99.90
47336;DHT22;33068;51.990;5.926;2022-11-15T01:52:15;8.00;99.90
47336;DHT22;33068;51.990;5.926;2022-11-15T01:55:06;8.10;99.90
47336;DHT22;33068;51.990;5.926;2022-11-15T01:57:56;8.20;99.90
47336;DHT22;33068;51.990;5.926;2022-11-15T02:00:44;8.10;99.90
47336;DHT22;33068;51.990;5.926;2022-11-15T02:03:34;8.20;99.90
47336;DHT22;33068;51.990;5.926;2022-11-15T02:06:22;8.20;99.90
47336;DHT22;33068;51.990;5.926;2022-11-15T02:09:08;8.20;99.90
47336;DHT22;33068;51.990;5.926;2022-11-15T02:11:54;8.20;99.90
47336;DHT22;33068;51.990;5.926;2022-11-15T02:14:43;8.20;99.90
47336;DHT22;33068;51.990;5.926;2022-11-15T02:18:00;8.30;99.90
47336;DHT22;33068;51.990;5.926;2022-11-15T02:21:00;8.30;99.90
47336;DHT22;33068;51.990;5.926;2022-11-15T02:27:34;8.40;99.90
47336;DHT22;33068;51.990;5.926;2022-11-15T02:30:30;8.40;99.90
47336;DHT22;33068;51.990;5.926;2022-11-15T02:33:28;8.40;99.90
47336;DHT22;33068;51.990;5.926;2022-11-15T02:36:20;8.40;99.90
47336;DHT22;33068;51.990;5.926;2022-11-15T02:39:14;8.40;99.90
47336;DHT22;33068;51.990;5.926;2022-11-15T02:42:02;8.60;99.90
47336;DHT22;33068;51.990;5.926;2022-11-15T02:45:13;8.40;99.90
47336;DHT22;33068;51.990;5.926;2022-11-15T02:48:01;8.50;99.90
47336;DHT22;33068;51.990;5.926;2022-11-15T02:50:48;8.50;99.90
47336;DHT22;33068;51.990;5.926;2022-11-15T02:53:34;8.50;99.90
47336;DHT22;33068;51.990;5.926;2022-11-15T02:56:19;8.50;99.90
47336;DHT22;33068;51.990;5.926;2022-11-15T02:59:18;8.50;99.90
47336;DHT22;33068;51.990;5.926;2022-11-15T03:02:15;8.60;99.90
47336;DHT22;33068;51.990;5.926;2022-11-15T03:05:13;8.60;99.90
47336;DHT22;33068;51.990;5.926;2022-11-15T03:08:06;8.60;99.90
47336;DHT22;33068;51.990;5.926;2022-11-15T03:11:02;8.60;99.90
47336;DHT22;33068;51.990;5.926;2022-11-15T03:13:54;8.70;99.90
47336;DHT22;33068;51.990;5.926;2022-11-15T03:16:46;8.80;99.90
47336;DHT22;33068;51.990;5.926;2022-11-15T03:19:39;8.80;99.90
47336;DHT22;33068;51.990;5.926;2022-11-15T03:22:29;8.90;99.90
47336;DHT22;33068;51.990;5.926;2022-11-15T03:25:18;8.90;99.90
47336;DHT22;33068;51.990;5.926;2022-11-15T03:28:06;9.00;99.90
47336;DHT22;33068;51.990;5.926;2022-11-15T03:30:54;9.00;99.90
47336;DHT22;33068;51.990;5.926;2022-11-15T03:33:40;9.10;99.90
47336;DHT22;33068;51.990;5.926;2022-11-15T03:36:27;9.10;99.90
47336;DHT22;33068;51.990;5.926;2022-11-15T03:39:16;9.10;99.90
47336;DHT22;33068;51.990;5.926;2022-11-15T03:42:11;9.20;99.90
47336;DHT22;33068;51.990;5.926;2022-11-15T03:45:03;9.20;99.90
47336;DHT22;33068;51.990;5.926;2022-11-15T03:47:57;9.30;99.90
47336;DHT22;33068;51.990;5.926;2022-11-15T03:50:44;9.40;99.90
47336;DHT22;33068;51.990;5.926;2022-11-15T03:53:30;9.40;99.90
47336;DHT22;33068;51.990;5.926;2022-11-15T03:56:18;9.40;99.90
47336;DHT22;33068;51.990;5.926;2022-11-15T03:59:03;9.30;99.90
47336;DHT22;33068;51.990;5.926;2022-11-15T04:01:49;9.40;99.90
47336;DHT22;33068;51.990;5.926;2022-11-15T04:04:34;9.40;99.90
47336;DHT22;33068;51.990;5.926;2022-11-15T04:07:20;9.40;99.90
47336;DHT22;33068;51.990;5.926;2022-11-15T04:10:07;9.50;99.90
47336;DHT22;33068;51.990;5.926;2022-11-15T04:12:54;9.60;99.90
47336;DHT22;33068;51.990;5.926;2022-11-15T04:15:39;9.60;99.90
47336;DHT22;33068;51.990;5.926;2022-11-15T04:18:25;9.90;99.90
47336;DHT22;33068;51.990;5.926;2022-11-15T04:21:11;9.70;99.90
47336;DHT22;33068;51.990;5.926;2022-11-15T04:24:14;9.80;99.90
47336;DHT22;33068;51.990;5.926;2022-11-15T04:27:00;9.90;99.90
47336;DHT22;33068;51.990;5.926;2022-11-15T04:29:46;9.90;99.90
47336;DHT22;33068;51.990;5.926;2022-11-15T04:32:32;10.00;99.90
47336;DHT22;33068;51.990;5.926;2022-11-15T04:35:18;10.00;99.90
47336;DHT22;33068;51.990;5.926;2022-11-15T04:38:06;10.00;99.90
47336;DHT22;33068;51.990;5.926;2022-11-15T04:40:52;10.10;99.90
47336;DHT22;33068;51.990;5.926;2022-11-15T04:43:37;10.10;99.90
47336;DHT22;33068;51.990;5.926;2022-11-15T04:46:24;10.10;99.90
47336;DHT22;33068;51.990;5.926;2022-11-15T04:49:10;10.10;99.90
47336;DHT22;33068;51.990;5.926;2022-11-15T04:51:56;10.20;99.90
47336;DHT22;33068;51.990;5.926;2022-11-15T04:54:41;10.20;99.90
47336;DHT22;33068;51.990;5.926;2022-11-15T04:57:27;10.20;99.90
47336;DHT22;33068;51.990;5.926;2022-11-15T05:00:14;10.30;99.90
47336;DHT22;33068;51.990;5.926;2022-11-15T05:03:03;10.20;99.90
47336;DHT22;33068;51.990;5.926;2022-11-15T05:06:06;10.30;99.90
47336;DHT22;33068;51.990;5.926;2022-11-15T05:08:51;10.30;99.90
47336;DHT22;33068;51.990;5.926;2022-11-15T05:11:37;10.40;99.90
47336;DHT22;33068;51.990;5.926;2022-11-15T05:14:23;10.20;99.90
47336;DHT22;33068;51.990;5.926;2022-11-15T05:17:09;10.10;99.90
47336;DHT22;33068;51.990;5.926;2022-11-15T05:19:56;10.20;99.90
47336;DHT22;33068;51.990;5.926;2022-11-15T05:22:41;10.20;99.90
47336;DHT22;33068;51.990;5.926;2022-11-15T05:25:27;10.30;99.90
47336;DHT22;33068;51.990;5.926;2022-11-15T05:28:13;10.30;99.90
47336;DHT22;33068;51.990;5.926;2022-11-15T05:31:00;10.30;99.90
47336;DHT22;33068;51.990;5.926;2022-11-15T05:33:46;10.20;99.90
47336;DHT22;33068;51.990;5.926;2022-11-15T05:36:35;10.40;99.90
47336;DHT22;33068;51.990;5.926;2022-11-15T05:39:21;10.20;99.90
47336;DHT22;33068;51.990;5.926;2022-11-15T05:42:10;10.30;99.90
47336;DHT22;33068;51.990;5.926;2022-11-15T05:44:57;10.30;99.90
47336;DHT22;33068;51.990;5.926;2022-11-15T05:47:43;10.30;99.90
47336;DHT22;33068;51.990;5.926;2022-11-15T05:50:30;10.30;99.90
47336;DHT22;33068;51.990;5.926;2022-11-15T05:53:18;10.30;99.90
47336;DHT22;33068;51.990;5.926;2022-11-15T05:56:05;10.40;99.90
47336;DHT22;33068;51.990;5.926;2022-11-15T05:58:52;10.40;99.90
47336;DHT22;33068;51.990;5.926;2022-11-15T06:01:39;10.30;99.90
47336;DHT22;33068;51.990;5.926;2022-11-15T06:04:25;10.30;99.90
47336;DHT22;33068;51.990;5.926;2022-11-15T06:07:10;10.40;99.90
47336;DHT22;33068;51.990;5.926;2022-11-15T06:09:57;10.40;99.90
47336;DHT22;33068;51.990;5.926;2022-11-15T06:12:43;10.30;99.90
47336;DHT22;33068;51.990;5.926;2022-11-15T06:15:28;10.30;99.90
47336;DHT22;33068;51.990;5.926;2022-11-15T06:18:14;10.30;99.90
47336;DHT22;33068;51.990;5.926;2022-11-15T06:21:07;10.40;99.90
47336;DHT22;33068;51.990;5.926;2022-11-15T06:23:53;10.40;99.90
47336;DHT22;33068;51.990;5.926;2022-11-15T06:26:40;10.40;99.90
47336;DHT22;33068;51.990;5.926;2022-11-15T06:29:26;10.40;99.90
47336;DHT22;33068;51.990;5.926;2022-11-15T06:32:11;10.50;99.90
47336;DHT22;33068;51.990;5.926;2022-11-15T06:34:57;10.50;99.90
47336;DHT22;33068;51.990;5.926;2022-11-15T06:37:43;10.60;99.90
47336;DHT22;33068;51.990;5.926;2022-11-15T06:40:28;10.50;99.90
47336;DHT22;33068;51.990;5.926;2022-11-15T06:43:15;10.40;99.90
47336;DHT22;33068;51.990;5.926;2022-11-15T06:46:01;10.40;99.90
47336;DHT22;33068;51.990;5.926;2022-11-15T06:48:49;10.40;99.90
47336;DHT22;33068;51.990;5.926;2022-11-15T06:51:35;10.50;99.90
47336;DHT22;33068;51.990;5.926;2022-11-15T06:54:21;10.50;99.90
47336;DHT22;33068;51.990;5.926;2022-11-15T06:57:07;10.50;99.90
47336;DHT22;33068;51.990;5.926;2022-11-15T06:59:54;10.50;99.90
47336;DHT22;33068;51.990;5.926;2022-11-15T07:02:39;10.50;99.90
47336;DHT22;33068;51.990;5.926;2022-11-15T07:05:25;10.50;99.90
47336;DHT22;33068;51.990;5.926;2022-11-15T07:08:10;10.50;99.90
47336;DHT22;33068;51.990;5.926;2022-11-15T07:10:58;10.60;99.90
47336;DHT22;33068;51.990;5.926;2022-11-15T07:13:44;10.60;99.90
47336;DHT22;33068;51.990;5.926;2022-11-15T07:16:31;10.60;99.90
47336;DHT22;33068;51.990;5.926;2022-11-15T07:19:16;10.60;99.90
47336;DHT22;33068;51.990;5.926;2022-11-15T07:22:02;10.50;99.90
47336;DHT22;33068;51.990;5.926;2022-11-15T07:24:48;10.50;99.90
47336;DHT22;33068;51.990;5.926;2022-11-15T07:27:34;10.50;99.90
47336;DHT22;33068;51.990;5.926;2022-11-15T07:30:19;10.50;99.90
47336;DHT22;33068;51.990;5.926;2022-11-15T07:33:06;10.50;99.90
47336;DHT22;33068;51.990;5.926;2022-11-15T07:35:52;10.60;99.90
47336;DHT22;33068;51.990;5.926;2022-11-15T07:38:37;10.60;99.90
47336;DHT22;33068;51.990;5.926;2022-11-15T07:41:23;10.70;99.90
47336;DHT22;33068;51.990;5.926;2022-11-15T07:44:09;10.60;99.90
47336;DHT22;33068;51.990;5.926;2022-11-15T07:46:54;10.60;99.90
47336;DHT22;33068;51.990;5.926;2022-11-15T07:49:41;10.60;99.90
47336;DHT22;33068;51.990;5.926;2022-11-15T07:52:27;10.60;99.90
47336;DHT22;33068;51.990;5.926;2022-11-15T07:55:13;10.80;99.90
47336;DHT22;33068;51.990;5.926;2022-11-15T07:58:02;10.60;99.90
47336;DHT22;33068;51.990;5.926;2022-11-15T08:00:48;10.80;99.90
47336;DHT22;33068;51.990;5.926;2022-11-15T08:03:33;10.60;99.90
47336;DHT22;33068;51.990;5.926;2022-11-15T08:06:20;10.70;99.90
47336;DHT22;33068;51.990;5.926;2022-11-15T08:09:06;10.70;99.90
47336;DHT22;33068;51.990;5.926;2022-11-15T08:11:51;10.70;99.90
47336;DHT22;33068;51.990;5.926;2022-11-15T08:14:37;10.70;99.90
47336;DHT22;33068;51.990;5.926;2022-11-15T08:17:23;10.70;99.90
47336;DHT22;33068;51.990;5.926;2022-11-15T08:20:09;10.80;99.90
47336;DHT22;33068;51.990;5.926;2022-11-15T08:22:57;11.00;99.90
47336;DHT22;33068;51.990;5.926;2022-11-15T08:25:43;11.00;99.90
47336;DHT22;33068;51.990;5.926;2022-11-15T08:28:29;11.00;99.90
47336;DHT22;33068;51.990;5.926;2022-11-15T08:31:16;11.10;99.90
47336;DHT22;33068;51.990;5.926;2022-11-15T08:34:03;11.00;99.90
47336;DHT22;33068;51.990;5.926;2022-11-15T08:36:49;11.00;99.90
47336;DHT22;33068;51.990;5.926;2022-11-15T08:39:35;11.00;99.90
47336;DHT22;33068;51.990;5.926;2022-11-15T08:42:21;11.10;99.90
47336;DHT22;33068;51.990;5.926;2022-11-15T08:45:08;11.10;99.90
47336;DHT22;33068;51.990;5.926;2022-11-15T08:47:54;11.20;99.90
47336;DHT22;33068;51.990;5.926;2022-11-15T08:50:40;11.20;99.90
47336;DHT22;33068;51.990;5.926;2022-11-15T08:53:27;11.10;99.90
47336;DHT22;33068;51.990;5.926;2022-11-15T08:56:15;11.20;99.90
47336;DHT22;33068;51.990;5.926;2022-11-15T08:59:00;11.30;99.90
47336;DHT22;33068;51.990;5.926;2022-11-15T09:01:46;11.20;99.90
47336;DHT22;33068;51.990;5.926;2022-11-15T09:04:31;11.20;99.90
47336;DHT22;33068;51.990;5.926;2022-11-15T09:07:17;11.30;99.90
47336;DHT22;33068;51.990;5.926;2022-11-15T09:10:03;11.50;99.90
47336;DHT22;33068;51.990;5.926;2022-11-15T09:12:51;11.40;99.90
47336;DHT22;33068;51.990;5.926;2022-11-15T09:15:37;11.40;99.90
47336;DHT22;33068;51.990;5.926;2022-11-15T09:18:22;11.40;99.90
47336;DHT22;33068;51.990;5.926;2022-11-15T09:21:09;11.40;99.90
47336;DHT22;33068;51.990;5.926;2022-11-15T09:23:54;11.30;99.90
47336;DHT22;33068;51.990;5.926;2022-11-15T09:26:40;11.30;99.90
47336;DHT22;33068;51.990;5.926;2022-11-15T09:29:27;11.30;99.90
47336;DHT22;33068;51.990;5.926;2022-11-15T09:32:13;11.30;99.90
47336;DHT22;33068;51.990;5.926;2022-11-15T09:34:59;11.40;99.90
47336;DHT22;33068;51.990;5.926;2022-11-15T09:37:44;11.30;99.90
47336;DHT22;33068;51.990;5.926;2022-11-15T09:40:31;11.30;99.90
47336;DHT22;33068;51.990;5.926;2022-11-15T09:43:30;11.30;99.90
47336;DHT22;33068;51.990;5.926;2022-11-15T09:46:24;11.30;99.90
47336;DHT22;33068;51.990;5.926;2022-11-15T09:49:13;11.30;99.90
47336;DHT22;33068;51.990;5.926;2022-11-15T09:51:58;11.40;99.90
47336;DHT22;33068;51.990;5.926;2022-11-15T09:54:28;11.40;99.90
47336;DHT22;33068;51.990;5.926;2022-11-15T09:57:02;11.50;99.90
47336;DHT22;33068;51.990;5.926;2022-11-15T09:59:46;11.50;99.90
47336;DHT22;33068;51.990;5.926;2022-11-15T10:02:29;11.50;99.90
47336;DHT22;33068;51.990;5.926;2022-11-15T10:04:59;11.80;99.90
47336;DHT22;33068;51.990;5.926;2022-11-15T10:07:33;12.00;99.90
47336;DHT22;33068;51.990;5.926;2022-11-15T10:10:10;12.10;99.90
47336;DHT22;33068;51.990;5.926;2022-11-15T10:12:45;12.20;99.90
47336;DHT22;33068;51.990;5.926;2022-11-15T10:15:16;12.20;99.90
47336;DHT22;33068;51.990;5.926;2022-11-15T10:18:07;12.20;99.90
47336;DHT22;33068;51.990;5.926;2022-11-15T10:20:44;12.30;99.90
47336;DHT22;33068;51.990;5.926;2022-11-15T10:23:15;12.30;99.90
47336;DHT22;33068;51.990;5.926;2022-11-15T10:25:43;12.20;99.90
47336;DHT22;33068;51.990;5.926;2022-11-15T10:28:15;12.20;99.90
47336;DHT22;33068;51.990;5.926;2022-11-15T10:30:46;12.10;99.90
47336;DHT22;33068;51.990;5.926;2022-11-15T10:33:22;12.10;99.90
47336;DHT22;33068;51.990;5.926;2022-11-15T10:36:15;12.10;99.90
47336;DHT22;33068;51.990;5.926;2022-11-15T10:38:55;12.20;99.90
47336;DHT22;33068;51.990;5.926;2022-11-15T10:41:30;12.00;99.90
47336;DHT22;33068;51.990;5.926;2022-11-15T10:44:11;12.00;99.90
47336;DHT22;33068;51.990;5.926;2022-11-15T10:46:40;12.10;99.90
47336;DHT22;33068;51.990;5.926;2022-11-15T10:49:15;12.20;99.90
47336;DHT22;33068;51.990;5.926;2022-11-15T10:51:45;12.30;99.90
47336;DHT22;33068;51.990;5.926;2022-11-15T10:54:19;12.40;99.90
47336;DHT22;33068;51.990;5.926;2022-11-15T10:56:49;12.50;99.90
47336;DHT22;33068;51.990;5.926;2022-11-15T10:59:23;12.60;99.90
47336;DHT22;33068;51.990;5.926;2022-11-15T11:01:51;12.60;99.90
47336;DHT22;33068;51.990;5.926;2022-11-15T11:04:19;12.60;99.90
47336;DHT22;33068;51.990;5.926;2022-11-15T11:06:47;12.70;99.90
47336;DHT22;33068;51.990;5.926;2022-11-15T11:09:23;12.60;99.90
47336;DHT22;33068;51.990;5.926;2022-11-15T11:11:52;12.70;99.90
47336;DHT22;33068;51.990;5.926;2022-11-15T11:14:21;12.60;99.90
47336;DHT22;33068;51.990;5.926;2022-11-15T11:16:51;12.50;99.90
47336;DHT22;33068;51.990;5.926;2022-11-15T11:19:41;12.40;99.90
47336;DHT22;33068;51.990;5.926;2022-11-15T11:22:18;12.50;99.90
47336;DHT22;33068;51.990;5.926;2022-11-15T11:24:53;12.50;99.90
47336;DHT22;33068;51.990;5.926;2022-11-15T11:27:41;12.50;99.90
47336;DHT22;33068;51.990;5.926;2022-11-15T11:30:14;12.70;99.90
47336;DHT22;33068;51.990;5.926;2022-11-15T11:33:00;12.60;99.90
47336;DHT22;33068;51.990;5.926;2022-11-15T11:35:35;12.70;99.90
47336;DHT22;33068;51.990;5.926;2022-11-15T11:38:29;12.80;99.90
47336;DHT22;33068;51.990;5.926;2022-11-15T11:41:06;12.90;99.90
47336;DHT22;33068;51.990;5.926;2022-11-15T11:43:41;12.80;99.90
47336;DHT22;33068;51.990;5.926;2022-11-15T11:46:30;12.70;99.90
47336;DHT22;33068;51.990;5.926;2022-11-15T11:49:04;12.70;99.90
47336;DHT22;33068;51.990;5.926;2022-11-15T11:51:37;12.70;99.90
47336;DHT22;33068;51.990;5.926;2022-11-15T11:54:11;12.70;99.90
47336;DHT22;33068;51.990;5.926;2022-11-15T11:56:41;12.60;99.90
47336;DHT22;33068;51.990;5.926;2022-11-15T11:59:18;12.70;99.90
47336;DHT22;33068;51.990;5.926;2022-11-15T12:01:46;12.70;99.90
47336;DHT22;33068;51.990;5.926;2022-11-15T12:04:18;12.70;99.90
47336;DHT22;33068;51.990;5.926;2022-11-15T12:06:50;12.70;99.90
47336;DHT22;33068;51.990;5.926;2022-11-15T12:09:23;12.60;99.90
47336;DHT22;33068;51.990;5.926;2022-11-15T12:12:00;12.50;99.90
47336;DHT22;33068;51.990;5.926;2022-11-15T12:14:33;12.60;99.90
47336;DHT22;33068;51.990;5.926;2022-11-15T12:17:02;12.60;99.90
47336;DHT22;33068;51.990;5.926;2022-11-15T12:19:30;12.60;99.90
47336;DHT22;33068;51.990;5.926;2022-11-15T12:22:03;12.70;99.90
47336;DHT22;33068;51.990;5.926;2022-11-15T12:24:35;12.60;99.90
47336;DHT22;33068;51.990;5.926;2022-11-15T12:27:09;12.70;99.90
47336;DHT22;33068;51.990;5.926;2022-11-15T12:29:42;12.70;99.90
47336;DHT22;33068;51.990;5.926;2022-11-15T12:32:32;12.60;99.90
47336;DHT22;33068;51.990;5.926;2022-11-15T12:35:02;12.50;99.90
47336;DHT22;33068;51.990;5.926;2022-11-15T12:37:50;12.50;99.90
47336;DHT22;33068;51.990;5.926;2022-11-15T12:43:04;12.60;99.90
47336;DHT22;33068;51.990;5.926;2022-11-15T12:45:33;12.60;99.90
47336;DHT22;33068;51.990;5.926;2022-11-15T12:57:45;12.70;99.90
47336;DHT22;33068;51.990;5.926;2022-11-15T13:00:42;12.60;99.90
47336;DHT22;33068;51.990;5.926;2022-11-15T13:03:33;12.80;99.90
47336;DHT22;33068;51.990;5.926;2022-11-15T13:08:49;12.60;99.90
47336;DHT22;33068;51.990;5.926;2022-11-15T13:11:46;12.60;99.90
47336;DHT22;33068;51.990;5.926;2022-11-15T13:14:45;12.60;99.90
47336;DHT22;33068;51.990;5.926;2022-11-15T13:17:33;12.70;99.90
47336;DHT22;33068;51.990;5.926;2022-11-15T13:20:17;12.60;99.90
47336;DHT22;33068;51.990;5.926;2022-11-15T13:22:46;12.70;99.90
47336;DHT22;33068;51.990;5.926;2022-11-15T13:28:28;12.60;99.90
47336;DHT22;33068;51.990;5.926;2022-11-15T13:30:58;12.50;99.90
47336;DHT22;33068;51.990;5.926;2022-11-15T13:33:30;12.50;99.90
47336;DHT22;33068;51.990;5.926;2022-11-15T13:36:00;12.50;99.90
47336;DHT22;33068;51.990;5.926;2022-11-15T13:38:28;12.50;99.90
47336;DHT22;33068;51.990;5.926;2022-11-15T13:40:58;12.50;99.90
47336;DHT22;33068;51.990;5.926;2022-11-15T13:43:34;12.40;99.90
47336;DHT22;33068;51.990;5.926;2022-11-15T13:46:10;12.40;99.90
47336;DHT22;33068;51.990;5.926;2022-11-15T13:48:38;12.40;99.90
47336;DHT22;33068;51.990;5.926;2022-11-15T13:51:09;12.40;99.90
47336;DHT22;33068;51.990;5.926;2022-11-15T13:53:40;12.30;99.90
47336;DHT22;33068;51.990;5.926;2022-11-15T13:56:09;12.40;99.90
47336;DHT22;33068;51.990;5.926;2022-11-15T13:58:37;12.40;99.90
47336;DHT22;33068;51.990;5.926;2022-11-15T14:01:08;12.40;99.90
47336;DHT22;33068;51.990;5.926;2022-11-15T14:03:47;12.30;99.90
47336;DHT22;33068;51.990;5.926;2022-11-15T14:06:17;12.30;99.90
47336;DHT22;33068;51.990;5.926;2022-11-15T14:09:03;12.30;99.90
47336;DHT22;33068;51.990;5.926;2022-11-15T14:11:30;12.30;99.90
47336;DHT22;33068;51.990;5.926;2022-11-15T14:14:13;12.20;99.90
47336;DHT22;33068;51.990;5.926;2022-11-15T14:16:44;12.20;99.90
47336;DHT22;33068;51.990;5.926;2022-11-15T14:19:12;12.20;99.90
47336;DHT22;33068;51.990;5.926;2022-11-15T14:22:07;12.20;99.90
47336;DHT22;33068;51.990;5.926;2022-11-15T14:24:34;12.10;99.90
47336;DHT22;33068;51.990;5.926;2022-11-15T14:27:16;12.10;99.90
47336;DHT22;33068;51.990;5.926;2022-11-15T14:29:44;12.00;99.90
47336;DHT22;33068;51.990;5.926;2022-11-15T14:32:15;12.00;99.90
47336;DHT22;33068;51.990;5.926;2022-11-15T14:34:42;12.00;99.90
47336;DHT22;33068;51.990;5.926;2022-11-15T14:37:19;12.00;99.90
47336;DHT22;33068;51.990;5.926;2022-11-15T14:39:46;12.00;99.90
47336;DHT22;33068;51.990;5.926;2022-11-15T14:42:13;12.00;99.90
47336;DHT22;33068;51.990;5.926;2022-11-15T14:44:40;12.00;99.90
47336;DHT22;33068;51.990;5.926;2022-11-15T14:47:07;12.10;99.90
47336;DHT22;33068;51.990;5.926;2022-11-15T14:49:36;12.00;99.90
47336;DHT22;33068;51.990;5.926;2022-11-15T14:52:07;12.00;99.90
47336;DHT22;33068;51.990;5.926;2022-11-15T14:54:38;12.00;99.90
47336;DHT22;33068;51.990;5.926;2022-11-15T14:57:05;12.00;99.90
47336;DHT22;33068;51.990;5.926;2022-11-15T14:59:32;12.00;99.90
47336;DHT22;33068;51.990;5.926;2022-11-15T15:01:59;12.00;99.90
47336;DHT22;33068;51.990;5.926;2022-11-15T15:04:26;12.00;99.90
47336;DHT22;33068;51.990;5.926;2022-11-15T15:06:55;12.00;99.90
47336;DHT22;33068;51.990;5.926;2022-11-15T15:09:22;12.00;99.90
47336;DHT22;33068;51.990;5.926;2022-11-15T15:11:49;12.00;99.90
47336;DHT22;33068;51.990;5.926;2022-11-15T15:14:16;12.00;99.90
47336;DHT22;33068;51.990;5.926;2022-11-15T15:16:43;11.90;99.90
47336;DHT22;33068;51.990;5.926;2022-11-15T15:19:10;11.90;99.90
47336;DHT22;33068;51.990;5.926;2022-11-15T15:21:37;12.00;99.90
47336;DHT22;33068;51.990;5.926;2022-11-15T15:24:07;12.10;99.90
47336;DHT22;33068;51.990;5.926;2022-11-15T15:26:35;12.00;99.90
47336;DHT22;33068;51.990;5.926;2022-11-15T15:29:03;12.00;99.90
47336;DHT22;33068;51.990;5.926;2022-11-15T15:31:30;12.10;99.90
47336;DHT22;33068;51.990;5.926;2022-11-15T15:33:58;12.10;99.90
47336;DHT22;33068;51.990;5.926;2022-11-15T15:36:25;12.00;99.90
47336;DHT22;33068;51.990;5.926;2022-11-15T15:38:52;12.00;99.90
47336;DHT22;33068;51.990;5.926;2022-11-15T15:41:21;12.00;99.90
47336;DHT22;33068;51.990;5.926;2022-11-15T15:43:48;12.00;99.90
47336;DHT22;33068;51.990;5.926;2022-11-15T15:46:16;12.00;99.90
47336;DHT22;33068;51.990;5.926;2022-11-15T15:48:44;12.00;99.90
47336;DHT22;33068;51.990;5.926;2022-11-15T15:51:11;11.90;99.90
47336;DHT22;33068;51.990;5.926;2022-11-15T15:53:38;12.00;99.90
47336;DHT22;33068;51.990;5.926;2022-11-15T15:56:05;12.00;99.90
47336;DHT22;33068;51.990;5.926;2022-11-15T15:58:35;12.00;99.90
47336;DHT22;33068;51.990;5.926;2022-11-15T16:01:02;12.00;99.90
47336;DHT22;33068;51.990;5.926;2022-11-15T16:03:29;12.00;99.90
47336;DHT22;33068;51.990;5.926;2022-11-15T16:05:56;12.00;99.90
47336;DHT22;33068;51.990;5.926;2022-11-15T16:08:24;12.00;99.90
47336;DHT22;33068;51.990;5.926;2022-11-15T16:10:53;12.00;99.90
47336;DHT22;33068;51.990;5.926;2022-11-15T16:13:20;12.10;99.90
47336;DHT22;33068;51.990;5.926;2022-11-15T16:15:51;12.10;99.90
47336;DHT22;33068;51.990;5.926;2022-11-15T16:18:19;12.30;99.90
47336;DHT22;33068;51.990;5.926;2022-11-15T16:20:47;12.10;99.90
47336;DHT22;33068;51.990;5.926;2022-11-15T16:23:18;12.00;99.90
47336;DHT22;33068;51.990;5.926;2022-11-15T16:25:50;12.10;99.90
47336;DHT22;33068;51.990;5.926;2022-11-15T16:28:20;12.10;99.90
47336;DHT22;33068;51.990;5.926;2022-11-15T16:30:49;12.00;99.90
47336;DHT22;33068;51.990;5.926;2022-11-15T16:33:16;12.00;99.90
47336;DHT22;33068;51.990;5.926;2022-11-15T16:35:46;12.10;99.90
47336;DHT22;33068;51.990;5.926;2022-11-15T16:38:14;12.10;99.90
47336;DHT22;33068;51.990;5.926;2022-11-15T16:40:42;12.10;99.90
47336;DHT22;33068;51.990;5.926;2022-11-15T16:43:09;12.10;99.90
47336;DHT22;33068;51.990;5.926;2022-11-15T16:45:36;12.10;99.90
47336;DHT22;33068;51.990;5.926;2022-11-15T16:48:05;12.20;99.90
47336;DHT22;33068;51.990;5.926;2022-11-15T16:50:33;12.10;99.90
47336;DHT22;33068;51.990;5.926;2022-11-15T16:53:05;12.10;99.90
47336;DHT22;33068;51.990;5.926;2022-11-15T16:55:32;12.10;99.90
47336;DHT22;33068;51.990;5.926;2022-11-15T16:57:59;12.10;99.90
47336;DHT22;33068;51.990;5.926;2022-11-15T17:00:27;12.10;99.90
47336;DHT22;33068;51.990;5.926;2022-11-15T17:02:54;12.10;99.90
47336;DHT22;33068;51.990;5.926;2022-11-15T17:05:23;12.10;99.90
47336;DHT22;33068;51.990;5.926;2022-11-15T17:07:52;12.10;99.90
47336;DHT22;33068;51.990;5.926;2022-11-15T17:10:20;12.10;99.90
47336;DHT22;33068;51.990;5.926;2022-11-15T17:12:48;12.10;99.90
47336;DHT22;33068;51.990;5.926;2022-11-15T17:15:16;12.10;99.90
47336;DHT22;33068;51.990;5.926;2022-11-15T17:17:43;12.10;99.90
47336;DHT22;33068;51.990;5.926;2022-11-15T17:20:14;12.20;99.90
47336;DHT22;33068;51.990;5.926;2022-11-15T17:22:43;12.20;99.90